sensor_id;sensor_type;location;lat;lon;timestamp;pressure;altitude;pressure_sealevel;temperature;humidity
31483;BME280;18103;52.246;8.052;2023-09-19T00:01:41;99414.88;;;17.13;86.19
31483;BME280;18103;52.246;8.052;2023-09-19T00:04:09;99418.41;;;16.99;88.04
31483;BME280;18103;52.246;8.052;2023-09-19T00:06:36;99414.72;;;17.00;87.60
31483;BME280;18103;52.246;8.052;2023-09-19T00:09:01;99421.59;;;17.09;86.47
31483;BME280;18103;52.246;8.052;2023-09-19T00:11:27;99417.81;;;17.18;85.93
31483;BME280;18103;52.246;8.052;2023-09-19T00:13:56;99437.06;;;16.99;87.66
31483;BME280;18103;52.246;8.052;2023-09-19T00:16:24;99428.03;;;17.15;85.51
31483;BME280;18103;52.246;8.052;2023-09-19T00:18:53;99431.34;;;17.02;86.88
31483;BME280;18103;52.246;8.052;2023-09-19T00:21:21;99423.81;;;17.05;86.36
31483;BME280;18103;52.246;8.052;2023-09-19T00:23:47;99444.78;;;17.08;86.29
31483;BME280;18103;52.246;8.052;2023-09-19T00:26:16;99442.38;;;16.84;88.35
31483;BME280;18103;52.246;8.052;2023-09-19T00:28:47;99441.53;;;16.83;88.21
31483;BME280;18103;52.246;8.052;2023-09-19T00:31:14;99437.03;;;16.84;87.72
31483;BME280;18103;52.246;8.052;2023-09-19T00:33:40;99436.75;;;16.79;87.35
31483;BME280;18103;52.246;8.052;2023-09-19T00:36:08;99445.78;;;16.77;87.37
31483;BME280;18103;52.246;8.052;2023-09-19T00:38:33;99455.31;;;16.87;85.99
31483;BME280;18103;52.246;8.052;2023-09-19T00:41:01;99445.88;;;16.99;85.05
31483;BME280;18103;52.246;8.052;2023-09-19T00:43:27;99444.88;;;17.00;84.79
31483;BME280;18103;52.246;8.052;2023-09-19T00:45:54;99447.44;;;16.93;84.62
31483;BME280;18103;52.246;8.052;2023-09-19T00:48:24;99461.78;;;16.92;84.71
31483;BME280;18103;52.246;8.052;2023-09-19T00:50:53;99458.47;;;16.90;84.45
31483;BME280;18103;52.246;8.052;2023-09-19T00:53:23;99462.84;;;16.68;85.72
31483;BME280;18103;52.246;8.052;2023-09-19T00:55:51;99462.66;;;16.70;86.06
31483;BME280;18103;52.246;8.052;2023-09-19T00:58:18;99465.88;;;16.65;86.19
31483;BME280;18103;52.246;8.052;2023-09-19T01:00:44;99477.00;;;16.69;84.43
31483;BME280;18103;52.246;8.052;2023-09-19T01:03:12;99473.78;;;16.58;85.37
31483;BME280;18103;52.246;8.052;2023-09-19T01:05:38;99470.81;;;16.53;85.64
31483;BME280;18103;52.246;8.052;2023-09-19T01:08:04;99470.94;;;16.75;84.02
31483;BME280;18103;52.246;8.052;2023-09-19T01:10:33;99479.72;;;16.60;85.30
31483;BME280;18103;52.246;8.052;2023-09-19T01:21:02;99500.97;;;16.54;84.94
31483;BME280;18103;52.246;8.052;2023-09-19T01:29:23;99509.34;;;16.66;83.66
31483;BME280;18103;52.246;8.052;2023-09-19T01:31:59;99500.88;;;16.62;83.54
31483;BME280;18103;52.246;8.052;2023-09-19T01:34:54;99503.31;;;16.49;84.15
31483;BME280;18103;52.246;8.052;2023-09-19T01:37:24;99503.63;;;16.54;83.87
31483;BME280;18103;52.246;8.052;2023-09-19T01:39:56;99504.44;;;16.54;83.72
31483;BME280;18103;52.246;8.052;2023-09-19T01:42:35;99507.97;;;16.32;84.84
31483;BME280;18103;52.246;8.052;2023-09-19T01:45:09;99510.94;;;16.37;84.20
31483;BME280;18103;52.246;8.052;2023-09-19T01:47:46;99524.09;;;16.53;83.43
31483;BME280;18103;52.246;8.052;2023-09-19T01:50:22;99525.38;;;16.42;83.85
31483;BME280;18103;52.246;8.052;2023-09-19T01:53:20;99529.41;;;16.53;83.34
31483;BME280;18103;52.246;8.052;2023-09-19T01:55:49;99530.59;;;16.51;83.05
31483;BME280;18103;52.246;8.052;2023-09-19T01:58:21;99524.09;;;16.53;83.23
31483;BME280;18103;52.246;8.052;2023-09-19T02:00:49;99517.81;;;16.46;83.45
31483;BME280;18103;52.246;8.052;2023-09-19T02:03:18;99526.19;;;16.43;84.40
31483;BME280;18103;52.246;8.052;2023-09-19T02:05:51;99539.06;;;16.31;85.16
31483;BME280;18103;52.246;8.052;2023-09-19T02:08:23;99534.00;;;16.45;83.59
31483;BME280;18103;52.246;8.052;2023-09-19T02:10:54;99529.16;;;16.48;83.16
31483;BME280;18103;52.246;8.052;2023-09-19T02:13:21;99536.34;;;16.39;83.40
31483;BME280;18103;52.246;8.052;2023-09-19T02:15:47;99536.50;;;16.23;84.73
31483;BME280;18103;52.246;8.052;2023-09-19T02:18:15;99535.97;;;16.28;83.83
31483;BME280;18103;52.246;8.052;2023-09-19T02:20:43;99542.22;;;16.35;83.75
31483;BME280;18103;52.246;8.052;2023-09-19T02:23:13;99541.22;;;16.36;83.28
31483;BME280;18103;52.246;8.052;2023-09-19T02:25:39;99533.38;;;16.42;82.83
31483;BME280;18103;52.246;8.052;2023-09-19T02:28:08;99533.84;;;16.23;83.46
31483;BME280;18103;52.246;8.052;2023-09-19T02:30:36;99544.34;;;16.39;82.82
31483;BME280;18103;52.246;8.052;2023-09-19T02:33:02;99544.72;;;16.36;82.99
31483;BME280;18103;52.246;8.052;2023-09-19T02:35:28;99534.19;;;16.43;82.72
31483;BME280;18103;52.246;8.052;2023-09-19T02:37:57;99545.38;;;16.38;83.07
31483;BME280;18103;52.246;8.052;2023-09-19T02:40:23;99543.41;;;16.32;82.59
31483;BME280;18103;52.246;8.052;2023-09-19T02:42:55;99547.56;;;16.35;82.44
31483;BME280;18103;52.246;8.052;2023-09-19T02:45:20;99557.38;;;16.34;82.83
31483;BME280;18103;52.246;8.052;2023-09-19T02:47:47;99551.94;;;16.28;83.10
31483;BME280;18103;52.246;8.052;2023-09-19T02:50:13;99551.94;;;16.28;82.71
31483;BME280;18103;52.246;8.052;2023-09-19T02:52:40;99555.25;;;16.30;82.75
31483;BME280;18103;52.246;8.052;2023-09-19T02:55:11;99558.50;;;16.17;83.17
31483;BME280;18103;52.246;8.052;2023-09-19T02:57:40;99558.03;;;16.13;83.53
31483;BME280;18103;52.246;8.052;2023-09-19T03:00:09;99569.63;;;16.20;82.86
31483;BME280;18103;52.246;8.052;2023-09-19T03:02:37;99566.47;;;16.17;82.66
31483;BME280;18103;52.246;8.052;2023-09-19T03:05:05;99568.72;;;16.05;82.95
31483;BME280;18103;52.246;8.052;2023-09-19T03:07:32;99575.53;;;16.07;82.86
31483;BME280;18103;52.246;8.052;2023-09-19T03:10:00;99570.09;;;16.01;82.85
31483;BME280;18103;52.246;8.052;2023-09-19T03:12:26;99568.41;;;16.00;82.93
31483;BME280;18103;52.246;8.052;2023-09-19T03:14:51;99568.91;;;16.03;82.60
31483;BME280;18103;52.246;8.052;2023-09-19T03:17:19;99571.25;;;15.98;83.12
31483;BME280;18103;52.246;8.052;2023-09-19T03:19:47;99571.78;;;15.94;83.19
31483;BME280;18103;52.246;8.052;2023-09-19T03:22:17;99572.78;;;15.93;83.24
31483;BME280;18103;52.246;8.052;2023-09-19T03:24:42;99568.47;;;15.91;82.71
31483;BME280;18103;52.246;8.052;2023-09-19T03:27:11;99571.63;;;15.95;82.57
31483;BME280;18103;52.246;8.052;2023-09-19T03:29:39;99569.28;;;15.92;82.96
31483;BME280;18103;52.246;8.052;2023-09-19T03:32:05;99573.66;;;15.77;83.80
31483;BME280;18103;52.246;8.052;2023-09-19T03:34:30;99581.63;;;15.77;83.19
31483;BME280;18103;52.246;8.052;2023-09-19T03:36:58;99586.66;;;15.71;83.91
31483;BME280;18103;52.246;8.052;2023-09-19T03:39:23;99584.56;;;15.59;84.28
31483;BME280;18103;52.246;8.052;2023-09-19T03:41:51;99584.00;;;15.71;83.77
31483;BME280;18103;52.246;8.052;2023-09-19T03:44:16;99581.50;;;15.78;83.15
31483;BME280;18103;52.246;8.052;2023-09-19T03:46:44;99580.31;;;15.81;82.71
31483;BME280;18103;52.246;8.052;2023-09-19T03:49:12;99571.06;;;15.68;83.24
31483;BME280;18103;52.246;8.052;2023-09-19T03:51:40;99574.22;;;15.64;83.27
31483;BME280;18103;52.246;8.052;2023-09-19T03:54:07;99569.25;;;15.61;83.40
31483;BME280;18103;52.246;8.052;2023-09-19T03:56:32;99572.03;;;15.67;83.08
31483;BME280;18103;52.246;8.052;2023-09-19T03:58:58;99571.91;;;15.61;83.34
31483;BME280;18103;52.246;8.052;2023-09-19T04:01:23;99567.53;;;15.68;83.00
31483;BME280;18103;52.246;8.052;2023-09-19T04:03:49;99570.72;;;15.63;83.26
31483;BME280;18103;52.246;8.052;2023-09-19T04:06:17;99575.75;;;15.50;83.46
31483;BME280;18103;52.246;8.052;2023-09-19T04:08:44;99579.53;;;15.64;82.82
31483;BME280;18103;52.246;8.052;2023-09-19T04:11:13;99585.25;;;15.44;83.07
31483;BME280;18103;52.246;8.052;2023-09-19T04:13:39;99596.38;;;15.56;83.13
31483;BME280;18103;52.246;8.052;2023-09-19T04:16:06;99601.53;;;15.49;83.39
31483;BME280;18103;52.246;8.052;2023-09-19T04:18:32;99593.06;;;15.46;83.40
31483;BME280;18103;52.246;8.052;2023-09-19T04:21:02;99587.06;;;15.52;82.78
31483;BME280;18103;52.246;8.052;2023-09-19T04:23:29;99597.88;;;15.50;82.73
31483;BME280;18103;52.246;8.052;2023-09-19T04:25:57;99594.09;;;15.36;83.45
31483;BME280;18103;52.246;8.052;2023-09-19T04:28:25;99592.09;;;15.30;83.56
31483;BME280;18103;52.246;8.052;2023-09-19T04:30:50;99598.91;;;15.41;82.60
31483;BME280;18103;52.246;8.052;2023-09-19T04:33:17;99608.53;;;15.42;82.55
31483;BME280;18103;52.246;8.052;2023-09-19T04:35:49;99601.91;;;15.38;82.99
31483;BME280;18103;52.246;8.052;2023-09-19T04:38:20;99604.88;;;15.43;82.20
31483;BME280;18103;52.246;8.052;2023-09-19T04:40:48;99605.19;;;15.40;82.52
31483;BME280;18103;52.246;8.052;2023-09-19T04:43:16;99614.22;;;15.31;82.81
31483;BME280;18103;52.246;8.052;2023-09-19T04:45:44;99613.53;;;15.37;82.50
31483;BME280;18103;52.246;8.052;2023-09-19T04:48:09;99615.19;;;15.38;82.36
31483;BME280;18103;52.246;8.052;2023-09-19T04:50:38;99606.53;;;15.36;82.05
31483;BME280;18103;52.246;8.052;2023-09-19T04:53:03;99604.72;;;15.36;81.79
31483;BME280;18103;52.246;8.052;2023-09-19T04:55:32;99608.06;;;15.22;82.50
31483;BME280;18103;52.246;8.052;2023-09-19T04:58:00;99609.56;;;15.25;82.11
31483;BME280;18103;52.246;8.052;2023-09-19T05:00:28;99610.41;;;15.25;82.20
31483;BME280;18103;52.246;8.052;2023-09-19T05:03:00;99615.41;;;15.20;82.32
31483;BME280;18103;52.246;8.052;2023-09-19T05:05:29;99625.03;;;15.21;81.58
31483;BME280;18103;52.246;8.052;2023-09-19T05:07:54;99634.34;;;15.17;81.60
31483;BME280;18103;52.246;8.052;2023-09-19T05:10:20;99645.97;;;15.16;81.24
31483;BME280;18103;52.246;8.052;2023-09-19T05:12:46;99651.78;;;15.19;81.28
31483;BME280;18103;52.246;8.052;2023-09-19T05:15:14;99646.31;;;15.21;80.78
31483;BME280;18103;52.246;8.052;2023-09-19T05:17:42;99647.47;;;15.10;81.61
31483;BME280;18103;52.246;8.052;2023-09-19T05:20:12;99659.94;;;15.01;81.68
31483;BME280;18103;52.246;8.052;2023-09-19T05:22:49;99662.44;;;15.11;81.10
31483;BME280;18103;52.246;8.052;2023-09-19T05:25:15;99673.72;;;15.05;81.38
31483;BME280;18103;52.246;8.052;2023-09-19T05:27:43;99676.88;;;15.00;81.30
31483;BME280;18103;52.246;8.052;2023-09-19T05:30:09;99671.38;;;14.94;81.77
31483;BME280;18103;52.246;8.052;2023-09-19T05:32:37;99682.84;;;15.02;81.16
31483;BME280;18103;52.246;8.052;2023-09-19T05:35:05;99662.78;;;15.00;81.48
31483;BME280;18103;52.246;8.052;2023-09-19T05:37:34;99675.72;;;14.95;80.92
31483;BME280;18103;52.246;8.052;2023-09-19T05:40:03;99678.53;;;14.93;80.59
31483;BME280;18103;52.246;8.052;2023-09-19T05:42:32;99675.22;;;14.99;80.99
31483;BME280;18103;52.246;8.052;2023-09-19T05:45:00;99678.38;;;14.95;80.66
31483;BME280;18103;52.246;8.052;2023-09-19T05:47:25;99678.53;;;14.93;80.13
31483;BME280;18103;52.246;8.052;2023-09-19T05:49:54;99678.69;;;14.83;80.50
31483;BME280;18103;52.246;8.052;2023-09-19T05:52:19;99676.22;;;14.90;80.61
31483;BME280;18103;52.246;8.052;2023-09-19T05:54:45;99670.91;;;14.82;80.68
31483;BME280;18103;52.246;8.052;2023-09-19T05:57:15;99667.06;;;14.76;80.97
31483;BME280;18103;52.246;8.052;2023-09-19T05:59:42;99670.22;;;14.88;80.47
31483;BME280;18103;52.246;8.052;2023-09-19T06:02:10;99665.75;;;14.80;80.07
31483;BME280;18103;52.246;8.052;2023-09-19T06:04:41;99656.94;;;14.80;80.28
31483;BME280;18103;52.246;8.052;2023-09-19T06:07:06;99664.44;;;14.84;80.49
31483;BME280;18103;52.246;8.052;2023-09-19T06:09:34;99665.41;;;14.83;80.16
31483;BME280;18103;52.246;8.052;2023-09-19T06:12:02;99677.19;;;14.81;80.26
31483;BME280;18103;52.246;8.052;2023-09-19T06:14:29;99676.34;;;14.64;80.23
31483;BME280;18103;52.246;8.052;2023-09-19T06:16:56;99675.88;;;14.77;79.51
31483;BME280;18103;52.246;8.052;2023-09-19T06:19:21;99684.00;;;14.75;79.36
31483;BME280;18103;52.246;8.052;2023-09-19T06:21:52;99682.50;;;14.81;79.57
31483;BME280;18103;52.246;8.052;2023-09-19T06:24:19;99685.34;;;14.79;79.15
31483;BME280;18103;52.246;8.052;2023-09-19T06:26:46;99687.66;;;14.82;79.25
31483;BME280;18103;52.246;8.052;2023-09-19T06:29:13;99673.56;;;14.90;78.52
31483;BME280;18103;52.246;8.052;2023-09-19T06:31:39;99688.81;;;14.88;78.66
31483;BME280;18103;52.246;8.052;2023-09-19T06:34:04;99685.38;;;15.04;78.62
31483;BME280;18103;52.246;8.052;2023-09-19T06:36:30;99683.34;;;15.14;77.64
31483;BME280;18103;52.246;8.052;2023-09-19T06:38:55;99677.06;;;15.23;77.81
31483;BME280;18103;52.246;8.052;2023-09-19T06:41:20;99665.56;;;15.31;77.03
31483;BME280;18103;52.246;8.052;2023-09-19T06:43:52;99684.00;;;15.41;76.60
31483;BME280;18103;52.246;8.052;2023-09-19T06:46:20;99684.81;;;15.42;76.56
31483;BME280;18103;52.246;8.052;2023-09-19T06:48:46;99690.19;;;15.33;76.80
31483;BME280;18103;52.246;8.052;2023-09-19T06:51:13;99700.13;;;15.31;77.05
31483;BME280;18103;52.246;8.052;2023-09-19T06:53:44;99696.78;;;15.46;76.96
31483;BME280;18103;52.246;8.052;2023-09-19T06:56:09;99697.97;;;15.43;76.99
31483;BME280;18103;52.246;8.052;2023-09-19T06:58:34;99705.63;;;15.30;76.71
31483;BME280;18103;52.246;8.052;2023-09-19T07:01:03;99707.28;;;15.31;76.51
31483;BME280;18103;52.246;8.052;2023-09-19T07:03:28;99719.91;;;15.29;76.42
31483;BME280;18103;52.246;8.052;2023-09-19T07:05:54;99717.91;;;15.22;76.91
31483;BME280;18103;52.246;8.052;2023-09-19T07:08:23;99720.41;;;15.24;76.60
31483;BME280;18103;52.246;8.052;2023-09-19T07:10:53;99732.38;;;15.36;76.46
31483;BME280;18103;52.246;8.052;2023-09-19T07:13:21;99731.69;;;15.34;76.32
31483;BME280;18103;52.246;8.052;2023-09-19T07:15:46;99738.53;;;15.37;76.08
31483;BME280;18103;52.246;8.052;2023-09-19T07:18:16;99741.84;;;15.31;76.91
31483;BME280;18103;52.246;8.052;2023-09-19T07:20:43;99744.66;;;15.37;76.53
31483;BME280;18103;52.246;8.052;2023-09-19T07:23:21;99742.34;;;15.43;76.81
31483;BME280;18103;52.246;8.052;2023-09-19T07:25:49;99739.03;;;15.49;76.37
31483;BME280;18103;52.246;8.052;2023-09-19T07:28:15;99739.00;;;15.57;76.13
31483;BME280;18103;52.246;8.052;2023-09-19T07:30:41;99745.81;;;15.68;76.49
31483;BME280;18103;52.246;8.052;2023-09-19T07:33:07;99744.13;;;15.91;75.91
31483;BME280;18103;52.246;8.052;2023-09-19T07:35:36;99748.47;;;15.93;76.24
31483;BME280;18103;52.246;8.052;2023-09-19T07:38:01;99737.13;;;15.90;76.49
31483;BME280;18103;52.246;8.052;2023-09-19T07:40:28;99736.91;;;16.08;75.29
31483;BME280;18103;52.246;8.052;2023-09-19T07:42:55;99726.44;;;16.07;74.87
31483;BME280;18103;52.246;8.052;2023-09-19T07:45:27;99722.94;;;16.15;75.12
31483;BME280;18103;52.246;8.052;2023-09-19T07:47:55;99723.94;;;16.14;75.54
31483;BME280;18103;52.246;8.052;2023-09-19T07:50:20;99724.09;;;16.12;75.97
31483;BME280;18103;52.246;8.052;2023-09-19T07:52:47;99733.56;;;16.23;75.63
31483;BME280;18103;52.246;8.052;2023-09-19T07:55:16;99732.81;;;16.37;75.81
31483;BME280;18103;52.246;8.052;2023-09-19T07:57:45;99725.38;;;16.33;75.32
31483;BME280;18103;52.246;8.052;2023-09-19T08:00:12;99735.91;;;16.49;76.25
31483;BME280;18103;52.246;8.052;2023-09-19T08:02:37;99741.78;;;16.45;74.76
31483;BME280;18103;52.246;8.052;2023-09-19T08:05:09;99736.31;;;16.38;74.81
31483;BME280;18103;52.246;8.052;2023-09-19T08:07:39;99745.38;;;16.20;75.63
31483;BME280;18103;52.246;8.052;2023-09-19T08:10:08;99738.16;;;16.37;75.18
31483;BME280;18103;52.246;8.052;2023-09-19T08:12:37;99743.13;;;16.40;74.59
31483;BME280;18103;52.246;8.052;2023-09-19T08:15:14;99740.63;;;16.39;75.14
31483;BME280;18103;52.246;8.052;2023-09-19T08:17:43;99745.19;;;16.30;75.81
31483;BME280;18103;52.246;8.052;2023-09-19T08:20:09;99739.50;;;16.33;74.77
31483;BME280;18103;52.246;8.052;2023-09-19T08:22:49;99744.97;;;16.40;75.08
31483;BME280;18103;52.246;8.052;2023-09-19T08:25:18;99743.91;;;16.49;74.41
31483;BME280;18103;52.246;8.052;2023-09-19T08:27:44;99742.75;;;16.52;74.09
31483;BME280;18103;52.246;8.052;2023-09-19T08:30:16;99744.53;;;16.59;75.24
31483;BME280;18103;52.246;8.052;2023-09-19T08:32:43;99751.50;;;16.60;75.16
31483;BME280;18103;52.246;8.052;2023-09-19T08:35:10;99766.31;;;16.63;75.10
31483;BME280;18103;52.246;8.052;2023-09-19T08:37:40;99761.56;;;16.50;75.26
31483;BME280;18103;52.246;8.052;2023-09-19T08:40:10;99766.72;;;16.52;74.30
31483;BME280;18103;52.246;8.052;2023-09-19T08:42:54;99763.56;;;16.56;74.62
31483;BME280;18103;52.246;8.052;2023-09-19T08:45:21;99770.03;;;16.62;75.01
31483;BME280;18103;52.246;8.052;2023-09-19T08:50:47;99767.97;;;16.72;74.95
31483;BME280;18103;52.246;8.052;2023-09-19T08:53:21;99757.50;;;16.63;74.17
31483;BME280;18103;52.246;8.052;2023-09-19T08:55:52;99759.97;;;16.72;74.78
31483;BME280;18103;52.246;8.052;2023-09-19T08:58:29;99763.63;;;16.71;74.54
31483;BME280;18103;52.246;8.052;2023-09-19T09:01:00;99771.72;;;16.86;74.54
31483;BME280;18103;52.246;8.052;2023-09-19T09:03:30;99763.38;;;16.89;74.58
31483;BME280;18103;52.246;8.052;2023-09-19T09:05:59;99758.72;;;16.91;75.35
31483;BME280;18103;52.246;8.052;2023-09-19T09:08:31;99770.78;;;17.02;74.16
31483;BME280;18103;52.246;8.052;2023-09-19T09:10:57;99767.00;;;16.97;74.37
31483;BME280;18103;52.246;8.052;2023-09-19T09:13:25;99756.53;;;16.95;74.36
31483;BME280;18103;52.246;8.052;2023-09-19T09:15:51;99773.19;;;16.97;73.91
31483;BME280;18103;52.246;8.052;2023-09-19T09:18:21;99782.00;;;16.98;72.99
31483;BME280;18103;52.246;8.052;2023-09-19T09:20:47;99762.59;;;16.81;73.05
31483;BME280;18103;52.246;8.052;2023-09-19T09:23:13;99766.13;;;17.04;73.35
31483;BME280;18103;52.246;8.052;2023-09-19T09:28:23;99766.72;;;17.15;72.62
31483;BME280;18103;52.246;8.052;2023-09-19T09:30:49;99766.34;;;17.18;73.05
31483;BME280;18103;52.246;8.052;2023-09-19T09:33:16;99768.13;;;17.02;73.28
31483;BME280;18103;52.246;8.052;2023-09-19T09:35:51;99753.13;;;17.24;72.97
31483;BME280;18103;52.246;8.052;2023-09-19T09:38:19;99754.88;;;17.17;72.62
31483;BME280;18103;52.246;8.052;2023-09-19T09:40:54;99758.06;;;17.36;71.47
31483;BME280;18103;52.246;8.052;2023-09-19T09:49:05;99765.44;;;17.49;71.01
31483;BME280;18103;52.246;8.052;2023-09-19T09:51:51;99761.13;;;17.48;70.70
31483;BME280;18103;52.246;8.052;2023-09-19T09:54:27;99770.13;;;17.70;70.04
31483;BME280;18103;52.246;8.052;2023-09-19T09:57:02;99763.75;;;17.71;69.55
31483;BME280;18103;52.246;8.052;2023-09-19T09:59:54;99779.25;;;17.90;69.10
31483;BME280;18103;52.246;8.052;2023-09-19T10:02:38;99764.41;;;17.73;68.46
31483;BME280;18103;52.246;8.052;2023-09-19T10:05:17;99761.28;;;17.84;69.29
31483;BME280;18103;52.246;8.052;2023-09-19T10:07:46;99758.28;;;18.17;69.00
31483;BME280;18103;52.246;8.052;2023-09-19T10:13:13;99759.00;;;17.96;68.18
31483;BME280;18103;52.246;8.052;2023-09-19T10:15:48;99761.50;;;17.98;68.52
31483;BME280;18103;52.246;8.052;2023-09-19T10:18:23;99751.66;;;17.98;67.45
31483;BME280;18103;52.246;8.052;2023-09-19T10:20:49;99764.84;;;18.15;68.47
31483;BME280;18103;52.246;8.052;2023-09-19T10:23:17;99757.47;;;18.17;67.79
31483;BME280;18103;52.246;8.052;2023-09-19T10:25:50;99756.19;;;18.12;66.78
31483;BME280;18103;52.246;8.052;2023-09-19T10:28:19;99746.41;;;18.20;67.34
31483;BME280;18103;52.246;8.052;2023-09-19T10:30:51;99752.66;;;18.27;67.99
31483;BME280;18103;52.246;8.052;2023-09-19T10:33:24;99747.69;;;18.39;67.60
31483;BME280;18103;52.246;8.052;2023-09-19T10:35:56;99748.31;;;18.41;67.08
31483;BME280;18103;52.246;8.052;2023-09-19T10:38:27;99752.47;;;18.43;67.58
31483;BME280;18103;52.246;8.052;2023-09-19T10:40:55;99769.34;;;18.44;68.05
31483;BME280;18103;52.246;8.052;2023-09-19T10:43:34;99750.34;;;18.39;67.13
31483;BME280;18103;52.246;8.052;2023-09-19T10:46:07;99762.34;;;18.43;67.76
31483;BME280;18103;52.246;8.052;2023-09-19T10:48:36;99769.16;;;18.30;67.86
31483;BME280;18103;52.246;8.052;2023-09-19T10:51:10;99758.84;;;18.27;66.77
31483;BME280;18103;52.246;8.052;2023-09-19T10:56:08;99751.03;;;18.26;67.17
31483;BME280;18103;52.246;8.052;2023-09-19T10:58:40;99748.06;;;18.21;67.18
31483;BME280;18103;52.246;8.052;2023-09-19T11:01:12;99755.13;;;18.28;68.24
31483;BME280;18103;52.246;8.052;2023-09-19T11:03:44;99747.41;;;18.34;67.14
31483;BME280;18103;52.246;8.052;2023-09-19T11:06:15;99755.50;;;18.40;67.93
31483;BME280;18103;52.246;8.052;2023-09-19T11:09:04;99743.53;;;18.51;67.62
31483;BME280;18103;52.246;8.052;2023-09-19T11:11:51;99767.38;;;18.53;66.92
31483;BME280;18103;52.246;8.052;2023-09-19T11:30:35;99740.09;;;18.57;66.05
31483;BME280;18103;52.246;8.052;2023-09-19T11:43:51;99742.31;;;18.54;65.11
31483;BME280;18103;52.246;8.052;2023-09-19T11:46:18;99746.44;;;18.56;64.58
31483;BME280;18103;52.246;8.052;2023-09-19T11:48:50;99743.22;;;18.61;65.72
31483;BME280;18103;52.246;8.052;2023-09-19T11:51:23;99740.16;;;18.64;65.23
31483;BME280;18103;52.246;8.052;2023-09-19T11:56:22;99727.00;;;18.62;65.01
31483;BME280;18103;52.246;8.052;2023-09-19T11:58:50;99726.03;;;18.70;64.54
31483;BME280;18103;52.246;8.052;2023-09-19T12:01:24;99730.25;;;18.94;63.80
31483;BME280;18103;52.246;8.052;2023-09-19T12:03:55;99736.03;;;18.98;62.64
31483;BME280;18103;52.246;8.052;2023-09-19T12:06:23;99734.44;;;19.25;63.67
31483;BME280;18103;52.246;8.052;2023-09-19T12:08:49;99742.66;;;19.24;63.03
31483;BME280;18103;52.246;8.052;2023-09-19T12:11:19;99729.66;;;19.21;61.03
31483;BME280;18103;52.246;8.052;2023-09-19T12:13:47;99722.94;;;19.31;62.48
31483;BME280;18103;52.246;8.052;2023-09-19T12:18:40;99713.50;;;19.57;60.75
31483;BME280;18103;52.246;8.052;2023-09-19T12:21:32;99719.66;;;19.58;60.66
31483;BME280;18103;52.246;8.052;2023-09-19T12:24:07;99720.13;;;19.90;60.78
31483;BME280;18103;52.246;8.052;2023-09-19T12:26:47;99709.59;;;19.88;59.36
31483;BME280;18103;52.246;8.052;2023-09-19T12:29:21;99705.22;;;19.80;59.55
31483;BME280;18103;52.246;8.052;2023-09-19T12:31:57;99711.69;;;19.93;58.99
31483;BME280;18103;52.246;8.052;2023-09-19T12:34:28;99716.84;;;19.94;59.55
31483;BME280;18103;52.246;8.052;2023-09-19T12:39:44;99713.25;;;19.80;59.12
31483;BME280;18103;52.246;8.052;2023-09-19T12:42:15;99709.44;;;19.68;59.09
31483;BME280;18103;52.246;8.052;2023-09-19T12:44:46;99699.56;;;19.69;59.60
31483;BME280;18103;52.246;8.052;2023-09-19T12:47:16;99697.66;;;19.62;60.09
31483;BME280;18103;52.246;8.052;2023-09-19T12:52:47;99685.97;;;19.70;60.05
31483;BME280;18103;52.246;8.052;2023-09-19T12:58:13;99693.47;;;19.81;61.08
31483;BME280;18103;52.246;8.052;2023-09-19T13:00:45;99691.44;;;19.55;59.23
31483;BME280;18103;52.246;8.052;2023-09-19T13:08:26;99701.13;;;19.56;59.88
31483;BME280;18103;52.246;8.052;2023-09-19T13:13:33;99697.25;;;19.37;60.23
31483;BME280;18103;52.246;8.052;2023-09-19T13:15:59;99704.09;;;19.40;61.72
31483;BME280;18103;52.246;8.052;2023-09-19T13:18:26;99688.91;;;19.47;60.40
31483;BME280;18103;52.246;8.052;2023-09-19T13:21:12;99688.94;;;19.54;61.68
31483;BME280;18103;52.246;8.052;2023-09-19T13:24:01;99694.59;;;19.37;60.30
31483;BME280;18103;52.246;8.052;2023-09-19T13:26:39;99676.25;;;19.34;60.46
31483;BME280;18103;52.246;8.052;2023-09-19T13:29:05;99687.22;;;19.46;59.94
31483;BME280;18103;52.246;8.052;2023-09-19T13:31:32;99692.59;;;19.46;60.96
31483;BME280;18103;52.246;8.052;2023-09-19T13:33:57;99687.88;;;19.48;60.88
31483;BME280;18103;52.246;8.052;2023-09-19T13:36:25;99695.38;;;19.59;61.39
31483;BME280;18103;52.246;8.052;2023-09-19T13:38:50;99706.53;;;19.63;61.42
31483;BME280;18103;52.246;8.052;2023-09-19T13:41:18;99688.47;;;19.43;61.04
31483;BME280;18103;52.246;8.052;2023-09-19T13:43:43;99684.81;;;19.51;61.35
31483;BME280;18103;52.246;8.052;2023-09-19T13:46:14;99683.50;;;19.69;61.39
31483;BME280;18103;52.246;8.052;2023-09-19T13:48:41;99678.50;;;19.65;62.25
31483;BME280;18103;52.246;8.052;2023-09-19T13:51:06;99689.69;;;19.41;62.51
31483;BME280;18103;52.246;8.052;2023-09-19T13:53:34;99686.75;;;19.36;62.02
31483;BME280;18103;52.246;8.052;2023-09-19T13:56:02;99687.22;;;19.46;62.74
31483;BME280;18103;52.246;8.052;2023-09-19T13:58:31;99690.16;;;19.51;61.94
31483;BME280;18103;52.246;8.052;2023-09-19T14:01:00;99686.94;;;19.62;62.03
31483;BME280;18103;52.246;8.052;2023-09-19T14:03:25;99680.56;;;19.63;62.26
31483;BME280;18103;52.246;8.052;2023-09-19T14:05:54;99667.78;;;19.59;61.19
31483;BME280;18103;52.246;8.052;2023-09-19T14:08:19;99682.25;;;19.71;61.32
31483;BME280;18103;52.246;8.052;2023-09-19T14:10:45;99668.28;;;19.76;61.55
31483;BME280;18103;52.246;8.052;2023-09-19T14:13:13;99665.50;;;19.91;61.71
31483;BME280;18103;52.246;8.052;2023-09-19T14:15:40;99684.03;;;19.86;61.03
31483;BME280;18103;52.246;8.052;2023-09-19T14:18:07;99679.19;;;19.74;60.95
31483;BME280;18103;52.246;8.052;2023-09-19T14:20:38;99686.19;;;19.69;60.32
31483;BME280;18103;52.246;8.052;2023-09-19T14:23:04;99674.66;;;19.75;62.09
31483;BME280;18103;52.246;8.052;2023-09-19T14:25:30;99676.06;;;19.71;61.29
31483;BME280;18103;52.246;8.052;2023-09-19T14:27:55;99673.41;;;19.71;62.06
31483;BME280;18103;52.246;8.052;2023-09-19T14:30:23;99684.25;;;19.62;61.66